KXNA/XNA METAR and TAF weather

Enter ICAO airport designator
Station Type Date Time Source
KXNA METAR 2020/07/15 07:53 UTC NOAA

KXNA 150753Z AUTO 16006KT 10SM CLR 24/20 A2991 RMK AO2 SLP111 T02390200


Station Type Date Time Source
KXNA Decoded METAR 2020/07/15 07:53 UTC NOAA

NORTHWEST ARKANSAS REGIONAL, AR, United States (KXNA) 36-17N 94-18W
Jul 15, 2020 - 03:53 AM EDT / 2020.07.15 0753 UTC
Wind: from the SSE (160 degrees) at 7 MPH (6 KT):0
Visibility: 10 mile(s):0
Sky conditions: clear
Temperature: 75.0 F (23.9 C)
Dew Point: 68.0 F (20.0 C)
Relative Humidity: 78%
Pressure (altimeter): 29.91 in. Hg (1012 hPa)
ob: KXNA 150753Z AUTO 16006KT 10SM CLR 24/20 A2991 RMK AO2 SLP111 T02390200
cycle: 8

Station Type Date Time Source
KXNA TAF 2020/07/15 06:22 UTC NOAA

TAF KXNA 150520Z 1506/1606 16007KT P6SM SCT150
FM150900 17007KT P6SM SCT120 BKN150 WS020/21035KT
FM151400 20011G18KT P6SM SCT200
FM152000 21012G19KT P6SM SCT045 SCT250
FM160000 22006KT P6SM BKN250

Example: see airport list